createdAt,value
2019-05-10T00:00:27.715Z,95714.81
2019-05-10T00:03:15.903Z,95716.14
2019-05-10T00:06:03.888Z,95720.85
2019-05-10T00:08:45.342Z,95719.41
2019-05-10T00:11:41.247Z,95719.11
2019-05-10T00:14:20.390Z,95726.51
2019-05-10T00:16:52.278Z,95730.08
2019-05-10T00:19:22.790Z,95737.16
2019-05-10T00:21:53.405Z,95740.07
2019-05-10T00:24:23.622Z,95732.66
2019-05-10T00:26:53.785Z,95738.47
2019-05-10T00:29:24.188Z,95733.48
2019-05-10T00:31:54.925Z,95737.80
2019-05-10T00:34:25.266Z,95736.51
2019-05-10T00:36:55.423Z,95738.62
2019-05-10T00:39:26.102Z,95737.96
2019-05-10T00:41:56.236Z,95738.44
2019-05-10T00:44:26.858Z,95740.53
2019-05-10T00:46:57.120Z,95739.87
2019-05-10T00:49:27.330Z,95747.32
2019-05-10T00:51:57.643Z,95755.37
2019-05-10T00:54:27.866Z,95760.52
2019-05-10T00:56:58.135Z,95756.02
2019-05-10T00:59:29.018Z,95753.59
2019-05-10T01:01:59.230Z,95757.75
2019-05-10T01:04:29.847Z,95762.11
2019-05-10T01:07:00.218Z,95760.82
2019-05-10T01:09:30.405Z,95752.28
2019-05-10T01:12:00.909Z,95758.09
2019-05-10T01:14:31.170Z,95763.87
2019-05-10T01:17:01.550Z,95770.16
2019-05-10T01:19:31.922Z,95768.87
2019-05-10T01:22:02.178Z,95774.20
2019-05-10T01:24:32.636Z,95771.13
2019-05-10T01:27:02.799Z,95763.87
2019-05-10T01:29:32.989Z,95777.91
2019-05-10T01:32:03.445Z,95767.09
2019-05-10T01:34:33.828Z,95762.09
2019-05-10T01:37:04.006Z,95764.69
2019-05-10T01:39:34.177Z,95761.29
2019-05-10T01:42:04.439Z,95761.26
2019-05-10T01:44:34.559Z,95765.63
2019-05-10T01:47:04.683Z,95762.87
2019-05-10T01:49:35.211Z,95762.38
2019-05-10T01:52:05.772Z,95762.72
2019-05-10T01:54:36.085Z,95767.73
2019-05-10T01:57:06.287Z,95784.20
2019-05-10T01:59:37.007Z,95787.09
2019-05-10T02:02:07.620Z,95794.53
2019-05-10T02:04:37.891Z,95796.50
2019-05-10T02:07:08.333Z,95789.12
2019-05-10T02:09:38.641Z,95795.91
2019-05-10T02:12:08.907Z,95798.50
2019-05-10T02:14:39.269Z,95797.52
2019-05-10T02:17:09.712Z,95800.74
2019-05-10T02:19:40.031Z,95808.99
2019-05-10T02:22:10.314Z,95809.00
2019-05-10T02:24:40.564Z,95798.50
2019-05-10T02:27:11.133Z,95802.05
2019-05-10T02:29:41.454Z,95795.94
2019-05-10T02:32:11.653Z,95789.52
2019-05-10T02:34:42.460Z,95793.85
2019-05-10T02:37:13.016Z,95806.61
2019-05-10T02:39:43.119Z,95808.70
2019-05-10T02:42:13.643Z,95808.05
2019-05-10T02:44:44.456Z,95808.22
2019-05-10T02:47:14.718Z,95801.80
2019-05-10T02:49:44.949Z,95807.58
2019-05-10T02:52:15.524Z,95812.92
2019-05-10T02:54:46.010Z,95814.20
2019-05-10T02:57:17.289Z,95809.69
2019-05-10T02:59:50.698Z,95810.98
2019-05-10T03:02:23.019Z,95806.50
2019-05-10T03:04:56.343Z,95809.55
2019-05-10T03:07:29.857Z,95810.03
2019-05-10T03:10:04.090Z,95804.24
2019-05-10T03:12:37.274Z,95809.87
2019-05-10T03:15:09.892Z,95815.05
2019-05-10T03:17:42.439Z,95824.25
2019-05-10T03:20:14.086Z,95817.31
2019-05-10T03:22:44.971Z,95827.48
2019-05-10T03:25:15.995Z,95816.35
2019-05-10T03:27:46.625Z,95814.27
2019-05-10T03:30:16.881Z,95820.39
2019-05-10T03:32:47.547Z,95830.68
2019-05-10T03:35:18.328Z,95827.63
2019-05-10T03:37:48.651Z,95834.72
2019-05-10T03:40:19.014Z,95836.00
2019-05-10T03:42:49.363Z,95835.53
2019-05-10T03:45:21.008Z,95847.11
2019-05-10T03:47:51.152Z,95842.45
2019-05-10T03:50:21.809Z,95842.15
2019-05-10T03:52:52.771Z,95851.00
2019-05-10T03:55:23.368Z,95859.53
2019-05-10T03:57:53.737Z,95857.27
2019-05-10T04:00:23.967Z,95861.29
2019-05-10T04:02:54.128Z,95867.58
2019-05-10T04:05:24.434Z,95872.23
2019-05-10T04:07:55.197Z,95870.46
2019-05-10T04:10:25.517Z,95868.20
2019-05-10T04:12:55.812Z,95866.59
2019-05-10T04:15:26.016Z,95876.73
2019-05-10T04:17:56.237Z,95884.94
2019-05-10T04:20:27.102Z,95878.83
2019-05-10T04:22:57.290Z,95880.58
2019-05-10T04:25:27.492Z,95868.18
2019-05-10T04:27:57.591Z,95872.69
2019-05-10T04:30:31.619Z,95878.95
2019-05-10T04:33:00.029Z,95880.39
2019-05-10T04:35:30.631Z,95879.61
2019-05-10T04:38:01.722Z,95868.48
2019-05-10T04:40:32.244Z,95871.21
2019-05-10T04:43:02.873Z,95880.23
2019-05-10T04:45:32.917Z,95885.54
2019-05-10T04:48:06.414Z,95885.06
2019-05-10T04:50:36.776Z,95893.44
2019-05-10T04:53:06.815Z,95889.73
2019-05-10T04:55:37.894Z,95889.88
2019-05-10T04:58:08.189Z,95889.72
2019-05-10T05:00:38.253Z,95889.39
2019-05-10T05:03:09.514Z,95899.54
2019-05-10T05:05:40.913Z,95899.22
2019-05-10T05:08:11.847Z,95898.41
2019-05-10T05:10:41.847Z,95898.09
2019-05-10T05:13:12.009Z,95901.76
2019-05-10T05:15:44.465Z,95903.02
2019-05-10T05:18:14.517Z,95905.72
2019-05-10T05:20:44.543Z,95905.50
2019-05-10T05:23:14.613Z,95915.25
2019-05-10T05:25:44.745Z,95924.24
2019-05-10T05:28:18.469Z,95924.83
2019-05-10T05:30:46.796Z,95928.33
2019-05-10T05:33:16.836Z,95922.16
2019-05-10T05:35:46.901Z,95920.66
2019-05-10T05:38:17.003Z,95924.30
2019-05-10T05:40:47.030Z,95934.50
2019-05-10T05:43:17.108Z,95929.84
2019-05-10T05:45:47.187Z,95935.56
2019-05-10T05:48:21.330Z,95940.94
2019-05-10T05:50:49.394Z,95943.12
2019-05-10T05:53:22.346Z,95954.00
2019-05-10T05:55:51.617Z,95944.77
2019-05-10T05:58:26.568Z,95949.39
2019-05-10T06:00:53.576Z,95948.38
2019-05-10T06:03:29.547Z,95946.89
2019-05-10T06:05:56.628Z,95946.31
2019-05-10T06:08:29.904Z,95943.02
2019-05-10T06:11:00.085Z,95939.73
2019-05-10T06:13:32.221Z,95936.61
2019-05-10T06:16:06.386Z,95943.66
2019-05-10T06:18:34.274Z,95944.92
2019-05-10T06:21:04.436Z,95950.56
2019-05-10T06:23:35.484Z,95959.13
2019-05-10T06:26:06.859Z,95963.67
2019-05-10T06:28:57.506Z,95963.38
2019-05-10T06:31:08.807Z,95967.55
2019-05-10T06:33:39.691Z,95973.56
2019-05-10T06:36:11.332Z,95974.20
2019-05-10T06:38:41.686Z,95975.53
2019-05-10T06:41:17.040Z,95975.99
2019-05-10T06:43:45.587Z,95973.98
2019-05-10T06:46:15.931Z,95982.80
2019-05-10T06:48:46.187Z,95986.98
2019-05-10T06:51:16.383Z,95994.39
2019-05-10T06:53:52.106Z,95991.45
2019-05-10T06:56:19.241Z,95987.64
2019-05-10T06:58:49.881Z,95989.47
2019-05-10T07:01:20.246Z,95995.07
2019-05-10T07:03:50.640Z,95997.39
2019-05-10T07:06:20.959Z,95990.25
2019-05-10T07:08:51.805Z,95993.47
2019-05-10T07:11:22.978Z,95999.59
2019-05-10T07:13:53.356Z,95999.26
2019-05-10T07:16:25.907Z,96003.02
2019-05-10T07:19:00.752Z,96002.23
2019-05-10T07:21:27.445Z,96004.84
2019-05-10T07:23:59.510Z,96005.82
2019-05-10T07:26:29.477Z,96008.92
2019-05-10T07:28:59.921Z,96011.86
2019-05-10T07:31:29.945Z,96013.69
2019-05-10T07:34:00.184Z,96010.62
2019-05-10T07:36:30.999Z,96009.04
2019-05-10T07:39:02.712Z,96012.97
2019-05-10T07:41:33.052Z,96007.16
2019-05-10T07:44:08.249Z,96012.19
2019-05-10T07:46:40.000Z,96010.16
2019-05-10T07:49:06.917Z,96016.67
2019-05-10T07:51:37.043Z,96023.86
2019-05-10T07:54:07.289Z,96026.96
2019-05-10T07:56:39.091Z,96034.11
2019-05-10T07:59:09.528Z,96034.56
2019-05-10T08:01:39.648Z,96041.34
2019-05-10T08:04:12.892Z,96034.05
2019-05-10T08:06:47.643Z,96028.27
2019-05-10T08:09:13.788Z,96028.78
2019-05-10T08:11:43.909Z,96022.97
2019-05-10T08:14:14.130Z,96034.46
2019-05-10T08:16:44.217Z,96026.72
2019-05-10T08:19:14.319Z,96037.38
2019-05-10T08:21:48.837Z,96034.16
2019-05-10T08:24:21.667Z,96032.61
2019-05-10T08:26:55.543Z,96033.67
2019-05-10T08:29:23.075Z,96030.47
2019-05-10T08:31:55.930Z,96035.88
2019-05-10T08:34:28.975Z,96030.92
2019-05-10T08:36:58.063Z,96034.58
2019-05-10T08:39:34.743Z,96031.81
2019-05-10T08:42:09.147Z,96033.56
2019-05-10T08:44:32.816Z,96037.01
2019-05-10T08:47:07.735Z,96036.12
2019-05-10T08:49:54.037Z,96042.30
2019-05-10T08:52:12.631Z,96036.86
2019-05-10T08:54:43.238Z,96031.50
2019-05-10T09:00:08.517Z,96030.76
2019-05-10T09:02:34.630Z,96038.19
2019-05-10T09:05:05.518Z,96034.65
2019-05-10T09:07:38.943Z,96034.17
2019-05-10T09:10:09.675Z,96043.20
2019-05-10T09:12:44.195Z,96039.23
2019-05-10T09:15:13.584Z,96046.57
2019-05-10T09:17:44.190Z,96040.50
2019-05-10T09:20:20.662Z,96041.86
2019-05-10T09:22:46.930Z,96042.92
2019-05-10T09:25:20.099Z,96045.81
2019-05-10T09:27:49.313Z,96042.88
2019-05-10T09:30:35.514Z,96039.16
2019-05-10T09:33:10.620Z,96043.56
2019-05-10T09:35:38.795Z,96045.03
2019-05-10T09:38:12.493Z,96035.52
2019-05-10T09:40:51.050Z,96038.43
2019-05-10T09:43:14.871Z,96043.10
2019-05-10T09:45:45.301Z,96046.14
2019-05-10T09:48:15.491Z,96047.75
2019-05-10T09:50:46.982Z,96041.95
2019-05-10T09:53:25.435Z,96047.33
2019-05-10T09:55:55.101Z,96047.17
2019-05-10T09:58:22.444Z,96045.22
2019-05-10T10:00:52.805Z,96046.03
2019-05-10T10:03:23.773Z,96048.75
2019-05-10T10:05:55.286Z,96051.05
2019-05-10T10:08:28.118Z,96047.31
2019-05-10T10:11:01.098Z,96053.81
2019-05-10T10:13:39.491Z,96051.98
2019-05-10T10:16:04.168Z,96051.47
2019-05-10T10:18:37.084Z,96054.17
2019-05-10T10:21:06.852Z,96054.16
2019-05-10T10:23:37.742Z,96060.42
2019-05-10T10:26:12.517Z,96058.66
2019-05-10T10:28:40.319Z,96060.11
2019-05-10T10:31:25.071Z,96057.41
2019-05-10T10:33:43.253Z,96050.84
2019-05-10T10:36:14.735Z,96053.52
2019-05-10T10:38:45.647Z,96051.09
2019-05-10T10:41:25.645Z,96056.92
2019-05-10T10:43:48.644Z,96051.91
2019-05-10T10:46:19.911Z,96049.81
2019-05-10T10:48:51.484Z,96055.06
2019-05-10T10:51:21.812Z,96045.81
2019-05-10T10:53:54.735Z,96049.14
2019-05-10T10:56:27.504Z,96050.99
2019-05-10T10:58:58.086Z,96044.22
2019-05-10T11:01:33.224Z,96045.17
2019-05-10T11:04:03.468Z,96049.14
2019-05-10T11:06:32.869Z,96062.31
2019-05-10T11:09:04.208Z,96071.20
2019-05-10T11:11:38.772Z,96078.44
2019-05-10T11:14:07.450Z,96074.86
2019-05-10T11:16:37.828Z,96069.73
2019-05-10T11:19:11.423Z,96064.29
2019-05-10T11:21:41.542Z,96064.33
2019-05-10T11:24:17.878Z,96059.22
2019-05-10T11:26:44.889Z,96058.73
2019-05-10T11:29:25.427Z,96060.16
2019-05-10T11:31:53.511Z,96058.67
2019-05-10T11:34:21.449Z,96064.31
2019-05-10T11:36:51.264Z,96063.02
2019-05-10T11:39:26.403Z,96063.69
2019-05-10T11:42:02.258Z,96060.92
2019-05-10T11:44:25.925Z,96063.33
2019-05-10T11:46:56.185Z,96065.21
2019-05-10T11:49:26.349Z,96068.00
2019-05-10T11:51:58.667Z,96068.18
2019-05-10T11:54:28.277Z,96072.83
2019-05-10T11:57:06.522Z,96075.56
2019-05-10T11:59:33.742Z,96062.96
2019-05-10T12:02:03.546Z,96063.86
2019-05-10T12:04:39.164Z,96066.58
2019-05-10T12:07:15.736Z,96064.91
2019-05-10T12:09:53.357Z,96064.73
2019-05-10T12:12:29.506Z,96069.09
2019-05-10T12:14:53.743Z,96067.61
2019-05-10T12:17:24.055Z,96073.14
2019-05-10T12:19:56.202Z,96068.64
2019-05-10T12:22:32.159Z,96073.69
2019-05-10T12:26:26.530Z,96076.50
2019-05-10T12:27:43.688Z,96073.14
2019-05-10T12:30:03.318Z,96063.73
2019-05-10T12:32:36.994Z,96066.45
2019-05-10T12:35:05.172Z,96068.64
2019-05-10T12:37:39.496Z,96066.89
2019-05-10T12:40:11.778Z,96067.95
2019-05-10T12:42:41.734Z,96070.33
2019-05-10T12:45:13.120Z,96070.27
2019-05-10T12:47:43.251Z,96066.45
2019-05-10T12:50:13.944Z,96064.64
2019-05-10T12:52:53.127Z,96062.84
2019-05-10T12:55:16.374Z,96062.30
2019-05-10T12:57:46.475Z,96064.05
2019-05-10T13:00:16.942Z,96066.86
2019-05-10T13:02:51.033Z,96066.17
2019-05-10T13:05:19.247Z,96069.54
2019-05-10T13:07:49.271Z,96077.16
2019-05-10T13:10:19.908Z,96075.72
2019-05-10T13:12:49.968Z,96078.48
2019-05-10T13:15:24.845Z,96082.64
2019-05-10T13:17:53.128Z,96093.46
2019-05-10T13:20:23.438Z,96107.25
2019-05-10T13:22:53.456Z,96115.76
2019-05-10T13:25:23.517Z,96116.89
2019-05-10T13:27:53.899Z,96122.21
2019-05-10T13:30:28.133Z,96118.88
2019-05-10T13:32:58.536Z,96126.52
2019-05-10T13:35:28.324Z,96127.66
2019-05-10T13:38:03.831Z,96139.58
2019-05-10T13:40:30.703Z,96139.46
2019-05-10T13:43:01.119Z,96146.25
2019-05-10T13:45:37.033Z,96151.06
2019-05-10T13:48:03.452Z,96150.06
2019-05-10T13:50:33.723Z,96148.78
2019-05-10T13:53:03.917Z,96154.61
2019-05-10T13:55:34.105Z,96156.98
2019-05-10T13:58:04.285Z,96148.36
2019-05-10T14:00:36.104Z,96145.25
2019-05-10T14:03:11.487Z,96145.52
2019-05-10T14:05:40.214Z,96142.38
2019-05-10T14:08:10.136Z,96145.67
2019-05-10T14:10:40.368Z,96148.80
2019-05-10T14:13:11.416Z,96143.81
2019-05-10T14:15:44.680Z,96141.72
2019-05-10T14:18:15.710Z,96134.48
2019-05-10T14:20:46.150Z,96130.75
2019-05-10T14:23:18.079Z,96127.03
2019-05-10T14:25:48.461Z,96122.34
2019-05-10T14:28:18.464Z,96124.56
2019-05-10T14:30:57.167Z,96126.17
2019-05-10T14:33:20.394Z,96119.88
2019-05-10T14:35:55.045Z,96116.18
2019-05-10T14:38:23.085Z,96124.29
2019-05-10T14:40:53.400Z,96118.12
2019-05-10T14:43:23.443Z,96121.32
2019-05-10T14:45:53.448Z,96115.14
2019-05-10T14:48:28.841Z,96114.94
2019-05-10T14:50:55.675Z,96115.88
2019-05-10T14:53:27.221Z,96111.33
2019-05-10T14:55:57.526Z,96116.77
2019-05-10T14:58:27.822Z,96111.70
2019-05-10T15:00:57.820Z,96116.35
2019-05-10T15:03:28.041Z,96119.52
2019-05-10T15:06:01.492Z,96121.05
2019-05-10T15:08:29.971Z,96123.61
2019-05-10T15:11:00.154Z,96122.59
2019-05-10T15:13:30.175Z,96121.94
2019-05-10T15:16:00.335Z,96124.33
2019-05-10T15:18:30.343Z,96123.00
2019-05-10T15:21:00.410Z,96119.88
2019-05-10T15:23:30.613Z,96115.78
2019-05-10T15:26:10.534Z,96120.42
2019-05-10T15:28:34.580Z,96118.94
2019-05-10T15:31:05.170Z,96109.17
2019-05-10T15:33:35.363Z,96104.30
2019-05-10T15:36:05.697Z,96102.64
2019-05-10T15:38:39.579Z,96102.30
2019-05-10T15:41:07.902Z,96110.39
2019-05-10T15:43:37.855Z,96111.48
2019-05-10T15:46:07.967Z,96112.92
2019-05-10T15:48:41.699Z,96111.60
2019-05-10T15:51:11.091Z,96110.12
2019-05-10T15:53:42.062Z,96110.78
2019-05-10T15:56:12.233Z,96114.48
2019-05-10T15:58:42.714Z,96107.16
2019-05-10T16:01:14.456Z,96103.47
2019-05-10T16:03:44.707Z,96096.89
2019-05-10T16:06:14.774Z,96095.50
2019-05-10T16:08:45.085Z,96088.22
2019-05-10T16:11:18.588Z,96094.69
2019-05-10T16:13:47.091Z,96099.69
2019-05-10T16:16:17.297Z,96100.65
2019-05-10T16:18:47.386Z,96098.85
2019-05-10T16:21:17.557Z,96101.59
2019-05-10T16:23:48.351Z,96098.34
2019-05-10T16:26:22.793Z,96095.55
2019-05-10T16:28:53.213Z,96095.36
2019-05-10T16:31:22.400Z,96095.33
2019-05-10T16:33:53.511Z,96095.47
2019-05-10T16:36:28.398Z,96091.38
2019-05-10T16:38:56.218Z,96094.47
2019-05-10T16:41:27.013Z,96091.00
2019-05-10T16:43:58.518Z,96092.12
2019-05-10T16:46:29.091Z,96087.69
2019-05-10T16:48:59.202Z,96084.28
2019-05-10T16:51:29.463Z,96083.29
2019-05-10T16:53:59.714Z,96094.03
2019-05-10T16:56:29.792Z,96100.95
2019-05-10T16:58:59.826Z,96098.19
2019-05-10T17:01:33.226Z,96097.66
2019-05-10T17:04:01.925Z,96099.75
2019-05-10T17:06:35.429Z,96106.16
2019-05-10T17:09:17.861Z,96109.20
2019-05-10T17:11:46.552Z,96101.88
2019-05-10T17:14:18.038Z,96108.98
2019-05-10T17:16:50.211Z,96103.47
2019-05-10T17:19:16.807Z,96087.27
2019-05-10T17:21:46.917Z,96101.40
2019-05-10T17:24:18.632Z,96091.67
2019-05-10T17:26:49.340Z,96082.59
2019-05-10T17:29:20.037Z,96078.84
2019-05-10T17:31:50.056Z,96081.89
2019-05-10T17:34:27.870Z,96081.11
2019-05-10T17:36:57.657Z,96086.94
2019-05-10T17:39:26.179Z,96087.70
2019-05-10T17:41:57.595Z,96081.83
2019-05-10T17:44:27.465Z,96079.36
2019-05-10T17:46:57.641Z,96082.63
2019-05-10T17:49:27.893Z,96077.01
2019-05-10T17:51:58.225Z,96069.25
2019-05-10T17:54:28.496Z,96078.20
2019-05-10T17:56:58.940Z,96087.56
2019-05-10T17:59:29.143Z,96087.02
2019-05-10T18:01:59.529Z,96092.78
2019-05-10T18:04:29.794Z,96087.55
2019-05-10T18:07:00.040Z,96082.63
2019-05-10T18:09:30.224Z,96082.91
2019-05-10T18:12:00.431Z,96089.73
2019-05-10T18:14:30.593Z,96089.27
2019-05-10T18:17:00.549Z,96086.04
2019-05-10T18:19:30.603Z,96079.80
2019-05-10T18:22:05.788Z,96083.73
2019-05-10T18:24:36.352Z,96078.20
2019-05-10T18:27:04.884Z,96073.33
2019-05-10T18:29:35.643Z,96077.22
2019-05-10T18:32:10.499Z,96078.86
2019-05-10T18:34:38.271Z,96082.14
2019-05-10T18:37:08.403Z,96080.41
2019-05-10T18:39:38.458Z,96081.42
2019-05-10T18:42:08.462Z,96087.08
2019-05-10T18:44:38.471Z,96083.55
2019-05-10T18:47:08.968Z,96102.52
2019-05-10T18:49:39.130Z,96108.70
2019-05-10T18:52:09.317Z,96106.84
2019-05-10T18:54:39.499Z,96108.04
2019-05-10T18:57:18.776Z,96103.08
2019-05-10T18:59:47.036Z,96097.03
2019-05-10T19:02:19.665Z,96096.31
2019-05-10T20:04:56.249Z,96122.30
2019-05-10T21:02:16.188Z,96091.69
2019-05-10T21:05:01.780Z,96101.84
2019-05-10T21:07:42.795Z,96098.91
2019-05-10T21:10:29.233Z,96109.40
2019-05-10T21:13:09.287Z,96108.58
2019-05-10T21:15:57.659Z,96104.17
2019-05-10T21:18:35.120Z,96106.44
2019-05-10T21:21:08.223Z,96097.70
2019-05-10T21:23:38.729Z,96097.72
2019-05-10T21:26:16.617Z,96101.45
2019-05-10T21:28:54.409Z,96099.51
2019-05-10T21:31:31.873Z,96092.74
2019-05-10T21:34:09.891Z,96083.35
2019-05-10T21:36:36.665Z,96073.66
2019-05-10T21:39:13.101Z,96068.96
2019-05-10T21:41:50.893Z,96075.44
2019-05-10T21:47:17.228Z,96070.16
2019-05-10T21:49:54.707Z,96046.76
2019-05-10T21:52:56.532Z,96030.83
2019-05-10T21:55:21.277Z,96047.69
2019-05-10T21:59:39.551Z,96054.54
2019-05-10T22:02:17.130Z,96051.48
2019-05-10T22:03:20.499Z,96052.97
2019-05-10T22:05:51.003Z,96061.23
2019-05-10T22:08:25.619Z,96058.99
2019-05-10T22:11:06.207Z,96072.91
2019-05-10T22:13:52.195Z,96067.92
2019-05-10T22:16:16.496Z,96058.23
2019-05-10T22:18:54.664Z,96056.64
2019-05-10T22:21:55.827Z,96057.48
2019-05-10T22:26:06.541Z,96067.03
2019-05-10T22:28:51.110Z,96068.84
2019-05-10T22:34:40.723Z,96077.55
2019-05-10T22:37:10.980Z,96073.99
2019-05-10T22:39:41.180Z,96070.11
2019-05-10T22:42:11.184Z,96068.33
2019-05-10T22:44:41.528Z,96060.73
2019-05-10T22:47:11.626Z,96063.97
2019-05-10T22:49:41.954Z,96058.77
2019-05-10T22:52:12.310Z,96057.98
2019-05-10T22:54:42.849Z,96048.59
2019-05-10T22:57:12.977Z,96050.72
2019-05-10T22:59:43.139Z,96048.61
2019-05-10T23:02:13.116Z,96053.95
2019-05-10T23:04:43.374Z,96061.18
2019-05-10T23:07:13.484Z,96040.66
2019-05-10T23:09:43.443Z,96033.70
2019-05-10T23:12:13.446Z,96021.63
2019-05-10T23:14:43.872Z,96025.22
2019-05-10T23:17:14.010Z,96029.14
2019-05-10T23:19:44.218Z,96026.08
2019-05-10T23:22:14.189Z,96027.55
2019-05-10T23:24:44.275Z,96027.86
2019-05-10T23:27:14.517Z,96015.30
2019-05-10T23:29:45.179Z,96009.33
2019-05-10T23:32:15.272Z,96013.54
2019-05-10T23:34:45.587Z,96012.42
2019-05-10T23:37:15.733Z,96009.67
2019-05-10T23:39:45.972Z,95999.53
2019-05-10T23:42:16.046Z,95989.04
2019-05-10T23:44:46.145Z,95991.44
2019-05-10T23:47:16.104Z,95980.95
2019-05-10T23:49:46.251Z,95974.66
2019-05-10T23:52:16.385Z,95955.30
2019-05-10T23:54:46.381Z,95950.62
2019-05-10T23:57:16.824Z,95950.94
2019-05-10T23:59:46.814Z,95948.38
